DIVISION OF AGRICULTURAL PHYSICS
INDIAN AGRICULTURAL RESEARCH INSTITUTE
NEW DELHI, INDIA-110012
Phone No. 011-25843014

(IARI: Latitude: 280 38'23"N, Longitude:770 09'27"E., Altitude: 228.61m above msl.)
Duration of data : Last 60 days
Date Max.
Temp.
(oC)
Min.
Temp.
(oC)
Rainfall
(mm)
Wind
Speed
(Kmph)
Wind
Direction-I
Wind
Direction-II
Weather
condition-I
(Code 0-9)
Weather
condition-II
(Code 0-9)
RH-I
(%)
RH-II
(%)
BSS
(hrs)
Evaporation
(mm)
2018-06-22 41.6 26.6 0.00 3.5 C S 0 0 57.0 29.0 5.7 7.1
2018-06-23 43.0 27.1 0.00 4.1 N S 0 0 49.0 29.0 10.4 7.2
2018-06-24 43.0 26.0 0.00 6.0 N NW 1 0 50.0 37.0 6.0 8.3
2018-06-25 43.0 30.5 0.00 5.3 NW NW 0 2 59.0 42.0 6.3 8.2
2018-06-26 41.8 29.0 0.00 9.0 NW S 1 1 70.0 23.0 7.5 8.4
2018-06-27 34.2 23.0 31.00 5.5 SE E 6 1 93.0 62.0 0.0 6.0
2018-06-28 35.0 23.4 19.40 7.9 SE SE 1 1 91.0 72.0 4.6 5.4
2018-06-29 34.0 25.5 6.40 10.3 SE SE 1 1 83.0 68.0 6.5 4.6
2018-06-30 33.5 24.5 5.00 5.8 SE NW 1 6 82.0 81.0 3.0 4.2
2018-07-01 33.5 26.4 0.00 4.3 W W 1 1 81.0 62.0 2.3 4.4
2018-07-02 36.0 27.8 0.00 11.3 W W 1 1 70.0 50.0 3.4 4.9
2018-07-03 37.4 22.2 24.40 8.3 SE C 1 1 85.0 67.0 2.0 5.4
2018-07-04 34.2 23.6 4.40 5.4 NE S 6 0 92.0 58.0 4.9 4.1
2018-07-05 35.4 26.1 0.00 5.1 N N 0 0 82.0 60.0 7.1 4.0
2018-07-06 36.4 23.1 19.00 3.8 C W 0 0 81.0 48.0 5.4 3.4
2018-07-07 36.6 25.7 0.00 5.3 C N 0 1 75.0 48.0 7.9 4.3
2018-07-08 37.6 26.0 0.00 3.5 C NW 0 0 64.0 44.0 8.6 4.9
2018-07-09 39.2 28.4 0.00 4.5 E E 0 0 83.0 47.0 8.8 4.9
2018-07-10 39.0 26.6 3.80 6.1 SSE C 0 0 88.0 52.0 5.5 5.8
2018-07-11 38.8 27.4 0.00 6.2 S SE 1 1 87.0 68.0 6.4 5.0
2018-07-12 36.0 26.2 0.00 3.9 C E 1 0 84.0 63.0 1.1 5.2
2018-07-13 36.0 25.6 0.00 5.0 SE NW 1 6 85.0 71.0 0.5 4.2
2018-07-14 33.5 23.0 122.40 3.1 E E 1 1 92.0 82.0 1.3 4.2
2018-07-15 31.5 25.2 0.00 4.8 C SE 1 0 85.0 65.0 1.0 4.0
2018-07-16 34.5 27.0 0.00 5.1 SE NW 1 1 85.0 91.0 5.3 4.2
2018-07-17 33.2 24.6 28.60 4.6 SE SE 0 1 90.0 62.0 2.2 4.6
2018-07-18 35.0 27.0 0.00 3.9 SE E 0 1 70.0 58.0 5.3 4.5
2018-07-19 35.2 26.4 0.00 5.9 NE E 0 1 85.0 54.0 7.1 5.6
2018-07-20 37.4 25.8 0.20 4.3 SW C 1 1 83.0 80.0 9.2 5.2
2018-07-21 31.5 26.0 20.00 3.0 C W 1 6 89.0 92.0 0.0 4.0
2018-07-22 33.2 24.5 7.80 2.4 C NE 1 1 92.0 79.0 0.3 4.8
2018-07-23 32.2 25.2 7.60 3.3 C S 1 0 89.0 57.0 2.6 4.2
2018-07-24 34.0 26.5 0.00 4.8 C SE 1 1 89.0 57.0 6.8 4.0
2018-07-25 35.2 26.0 0.00 4.1 W E 1 1 92.0 84.0 5.4 4.2
2018-07-26 31.0 24.8 5.80 3.8 NW W 1 1 92.0 90.0 0.0 4.7
2018-07-27 28.0 24.8 89.00 5.5 C W 6 1 98.0 92.0 0.0 3.4
2018-07-28 28.0 23.6 7.20 5.7 NW N 1 1 92.0 77.0 0.0 3.3
2018-07-29 31.0 23.6 5.20 3.4 C NW 1 1 85.0 65.0 0.0 3.2
2018-07-30 34.0 22.6 23.20 5.7 SE W 1 0 83.0 68.0 7.0 4.2
2018-07-31 33.4 26.0 0.00 7.1 NW W 1 1 74.0 62.0 4.1 3.5
2018-08-01 33.0 23.3 7.20 5.2 NW W 1 0 80.0 65.0 0.0 3.3
2018-08-02 34.5 25.8 0.00 7.1 W W 1 0 81.0 60.0 7.0 3.4
2018-08-03 35.0 26.3 0.00 9.2 W W 1 0 81.0 78.0 4.6 4.0
2018-08-04 34.0 25.8 0.00 8.9 SW W 0 1 78.0 57.0 3.0 4.0
2018-08-05 35.8 25.0 0.00 8.4 W W 1 1 74.0 55.0 3.2 4.2
2018-08-06 33.5 24.4 2.50 6.8 C C 2 0 92.0 75.0 0.0 2.9
2018-08-07 29.0 22.9 1.60 1.9 N N 2 1 86.0 68.0 0.0 2.9
2018-08-08 32.2 22.9 24.00 3.9 E E 1 1 86.0 77.0 0.0 2.7
2018-08-09 32.4 25.6 5.20 1.7 E SE 0 0 82.0 62.0 4.4 3.7
2018-08-10 34.2 25.3 0.00 5.5 C C 0 2 81.0 69.0 9.7 4.5
2018-08-11 34.8 25.6 5.60 3.3 SW W 1 0 85.0 61.0 4.1 4.1
2018-08-12 35.5 25.2 0.00 10.0 SW SW 1 1 92.0 71.0 4.3 3.8
2018-08-13 33.3 24.4 5.80 4.3 SW E 1 1 86.0 75.0 0.0 4.4
2018-08-14 32.0 25.4 0.00 2.7 C NW 1 0 92.0 63.0 0.7 3.8
2018-08-15 35.0 26.0 0.00 3.0 W SE 1 1 85.0 55.0 4.7 4.0
2018-08-16 35.0 25.4 0.00 4.4 C C 1 2 85.0 58.0 4.0 4.0
2018-08-17 35.0 24.6 24.40 6.9 SE SE 0 1 87.0 70.0 5.2 4.4
2018-08-18 34.5 26.0 0.00 2.5 SE S 0 0 84.0 67.0 6.6 4.0
2018-08-19 35.0 25.5 0.00 4.3 NE S 1 1 89.0 88.0 5.4 3.8
2018-08-20 33.2 25.0 0.00 1.7 C 1 0 92.0 0.0 0.9 3.6

Abbrevations used:
I - Observations taken at 7.21 hrs. and II - Observations taken at 14:21 hrs.
Codes:
0 - Fair (clear and slightly clouded), 1 - Variable Sky, 2 - Mainly Overcast, 3 - Sand Storm or Dust Storm,4 - Fog or Thick Dust Haze, 5 - Drizzle, 6 - Rain,7 - Snow or Sleet, 8 - Shower (s), 9 - Thunder Storm with or without Precipitation